Time,TemperatureF,DewpointF,PressureIn,WindDirection,WindDirectionDegrees,WindSpeedMPH,WindSpeedGustMPH,Humidity,HourlyPrecipIn,Conditions,Clouds,dailyrainin,SoftwareType,DateUTC
2013-03-11 00:00:00,48.2,7.9,30.27,ENE,62,3.6,7.6,19,0.00,,SKC,0.00,VWS V14.01,2013-03-11 04:00:00,
2013-03-11 00:20:00,47.5,7.3,30.27,East,96,5.4,6.3,19,0.00,,SKC,0.00,VWS V14.01,2013-03-11 04:20:00,
2013-03-11 00:40:00,47.3,7.1,30.27,ESE,104,5.8,8.7,19,0.00,,SKC,0.00,VWS V14.01,2013-03-11 04:40:00,
2013-03-11 01:00:00,46.4,6.4,30.27,ESE,103,3.1,6.3,19,0.00,,SKC,0.00,VWS V14.01,2013-03-11 05:00:00,
2013-03-11 01:20:00,46.2,7.4,30.27,East,90,3.6,5.8,20,0.00,,SKC,0.00,VWS V14.01,2013-03-11 05:20:00,
2013-03-11 01:40:00,46.4,6.4,30.27,East,89,3.1,6.3,19,0.00,,SKC,0.00,VWS V14.01,2013-03-11 05:40:00,
2013-03-11 02:00:00,46.2,7.4,30.24,SSE,166,0.0,6.3,20,0.00,,SKC,0.00,VWS V14.01,2013-03-11 06:00:00,
2013-03-11 02:20:00,46.0,7.2,30.24,NNE,22,3.6,7.6,20,0.00,,SKC,0.00,VWS V14.01,2013-03-11 06:20:00,
2013-03-11 02:40:00,46.2,7.4,30.24,NE,55,4.0,8.3,20,0.00,,SKC,0.00,VWS V14.01,2013-03-11 06:40:00,
2013-03-11 03:00:00,45.7,6.9,30.24,East,92,4.9,7.6,20,0.00,,SKC,0.00,VWS V14.01,2013-03-11 07:00:00,
2013-03-11 03:20:00,45.5,6.8,30.24,ENE,75,3.6,7.6,20,0.00,,SKC,0.00,VWS V14.01,2013-03-11 07:20:00,
2013-03-11 03:40:00,44.8,8.3,30.21,East,96,4.9,6.3,22,0.00,,SKC,0.00,VWS V14.01,2013-03-11 07:40:00,
2013-03-11 04:00:00,44.8,12.9,30.21,East,84,6.3,11.0,27,0.00,,SKC,0.00,VWS V14.01,2013-03-11 08:00:00,
2013-03-11 04:20:00,44.8,13.7,30.18,ESE,105,5.4,8.7,28,0.00,,SKC,0.00,VWS V14.01,2013-03-11 08:20:00,
2013-03-11 04:40:00,44.4,14.2,30.18,East,83,4.9,9.6,29,0.00,,SKC,0.00,VWS V14.01,2013-03-11 08:40:00,
2013-03-11 05:00:00,44.2,14.8,30.18,North,10,3.6,8.7,30,0.00,,SKC,0.00,VWS V14.01,2013-03-11 09:00:00,
2013-03-11 05:20:00,44.2,16.3,30.18,ENE,77,6.3,10.1,32,0.00,,SKC,0.00,VWS V14.01,2013-03-11 09:20:00,
2013-03-11 05:40:00,44.1,16.8,30.18,NNE,12,4.0,8.3,33,0.00,,SKC,0.00,VWS V14.01,2013-03-11 09:40:00,
2013-03-11 06:00:00,43.9,19.9,30.15,East,100,3.1,11.0,38,0.00,,SKC,0.00,VWS V14.01,2013-03-11 10:00:00,
2013-03-11 06:20:00,44.2,20.9,30.15,ENE,59,4.9,8.7,39,0.00,,SKC,0.00,VWS V14.01,2013-03-11 10:20:00,
2013-03-11 06:40:00,44.8,21.4,30.18,ENE,61,7.6,8.3,39,0.00,,SKC,0.00,VWS V14.01,2013-03-11 10:40:00,
2013-03-11 07:00:00,45.1,21.1,30.18,ENE,72,3.6,13.2,38,0.00,,SKC,0.00,VWS V14.01,2013-03-11 11:00:00,
2013-03-11 07:20:00,45.0,19.0,30.18,ESE,103,3.6,11.0,35,0.00,,SKC,0.00,VWS V14.01,2013-03-11 11:20:00,
2013-03-11 07:40:00,44.8,17.5,30.15,North,6,4.9,8.1,33,0.00,,SKC,0.00,VWS V14.01,2013-03-11 11:40:00,
2013-03-11 08:00:00,44.6,15.9,30.18,East,98,6.3,8.7,31,0.00,,SKC,0.00,VWS V14.01,2013-03-11 12:00:00,
2013-03-11 08:20:00,44.2,15.5,30.18,ESE,103,3.6,8.7,31,0.00,,SKC,0.00,VWS V14.01,2013-03-11 12:20:00,
2013-03-11 08:40:00,44.2,14.8,30.18,NNE,29,4.0,7.6,30,0.00,,SKC,0.00,VWS V14.01,2013-03-11 12:40:00,
2013-03-11 09:00:00,44.4,14.2,30.18,NE,54,0.0,6.3,29,0.00,,SKC,0.00,VWS V14.01,2013-03-11 13:00:00,
2013-03-11 09:20:00,44.4,14.2,30.18,ENE,62,0.0,4.9,29,0.00,,SKC,0.00,VWS V14.01,2013-03-11 13:20:00,
2013-03-11 09:40:00,44.6,13.5,30.18,WNW,288,4.0,5.4,28,0.00,,SKC,0.00,VWS V14.01,2013-03-11 13:40:00,
2013-03-11 10:00:00,44.6,13.5,30.18,ENE,76,4.0,6.3,28,0.00,,SKC,0.00,VWS V14.01,2013-03-11 14:00:00,
2013-03-11 10:20:00,44.2,13.2,30.15,East,99,5.8,8.3,28,0.00,,SKC,0.00,VWS V14.01,2013-03-11 14:20:00,
2013-03-11 10:40:00,44.4,13.4,30.15,East,79,5.4,5.8,28,0.00,,SKC,0.00,VWS V14.01,2013-03-11 14:40:00,
2013-03-11 11:00:00,44.1,13.1,30.15,ENE,61,0.0,8.7,28,0.00,,SKC,0.00,VWS V14.01,2013-03-11 15:00:00,
2013-03-11 11:20:00,43.5,13.4,30.15,ENE,71,5.8,8.1,29,0.00,,SKC,0.00,VWS V14.01,2013-03-11 15:20:00,
2013-03-11 11:40:00,43.5,13.4,30.15,East,80,5.8,9.2,29,0.00,,SKC,0.00,VWS V14.01,2013-03-11 15:40:00,
2013-03-11 12:00:00,43.3,12.4,30.15,ESE,111,0.0,7.6,28,0.00,,SKC,0.00,VWS V14.01,2013-03-11 16:00:00,
2013-03-11 12:20:00,42.8,13.5,30.15,ENE,77,0.0,8.3,30,0.00,,SKC,0.00,VWS V14.01,2013-03-11 16:20:00,
2013-03-11 12:40:00,42.4,14.0,30.15,East,87,0.0,5.8,31,0.00,,SKC,0.00,VWS V14.01,2013-03-11 16:40:00,
2013-03-11 13:00:00,41.7,14.1,30.15,East,101,0.0,4.9,32,0.00,,SKC,0.00,VWS V14.01,2013-03-11 17:00:00,
2013-03-11 13:20:00,40.6,17.0,30.15,ESE,105,3.6,5.4,38,0.00,,SKC,0.00,VWS V14.01,2013-03-11 17:20:00,
2013-03-11 13:40:00,40.5,17.5,30.15,ESE,105,0.0,4.0,39,0.00,,SKC,0.00,VWS V14.01,2013-03-11 17:40:00,
2013-03-11 14:00:00,40.6,18.2,30.12,ESE,105,4.0,5.8,40,0.00,,SKC,0.00,VWS V14.01,2013-03-11 18:00:00,
2013-03-11 14:20:00,41.0,20.2,30.09,ESE,105,3.1,6.3,43,0.00,,SKC,0.00,VWS V14.01,2013-03-11 18:20:00,
2013-03-11 14:40:00,41.2,22.0,30.09,East,97,4.9,5.8,46,0.00,,SKC,0.00,VWS V14.01,2013-03-11 18:40:00,
2013-03-11 15:20:00,42.4,23.6,30.03,ESE,116,0.0,6.7,47,0.00,,SKC,0.00,VWS V14.01,2013-03-11 19:20:00,
2013-03-11 15:40:00,43.0,23.6,30.06,East,101,4.0,5.4,46,0.00,,SKC,0.00,VWS V14.01,2013-03-11 19:40:00,
2013-03-11 16:00:00,44.1,25.6,30.06,East,98,6.3,6.3,48,0.00,,SKC,0.00,VWS V14.01,2013-03-11 20:00:00,
2013-03-11 16:20:00,45.7,27.1,30.06,ESE,105,4.9,6.3,48,0.00,,SKC,0.00,VWS V14.01,2013-03-11 20:20:00,
2013-03-11 16:40:00,46.9,28.3,30.03,SE,131,4.0,7.6,48,0.00,,SKC,0.00,VWS V14.01,2013-03-11 20:40:00,
2013-03-11 17:00:00,47.5,28.3,30.03,ESE,106,2.7,6.3,47,0.00,,SKC,0.00,VWS V14.01,2013-03-11 21:00:00,
2013-03-11 17:20:00,47.8,28.6,30.03,ENE,76,2.7,6.3,47,0.00,,SKC,0.00,VWS V14.01,2013-03-11 21:20:00,
2013-03-11 17:40:00,48.7,29.4,30.03,East,90,0.0,5.8,47,0.00,,SKC,0.00,VWS V14.01,2013-03-11 21:40:00,
2013-03-11 18:00:00,49.6,30.2,30.03,ESE,105,2.7,6.3,47,0.00,,SKC,0.00,VWS V14.01,2013-03-11 22:00:00,
2013-03-11 18:20:00,49.3,28.9,30.03,East,97,0.0,5.4,45,0.00,,SKC,0.00,VWS V14.01,2013-03-11 22:20:00,
2013-03-11 18:40:00,49.5,29.0,30.00,ESE,106,0.0,6.7,45,0.00,,SKC,0.00,VWS V14.01,2013-03-11 22:40:00,
2013-03-11 19:00:00,49.8,27.7,30.03,ESE,102,7.6,7.6,42,0.00,,SKC,0.00,VWS V14.01,2013-03-11 23:00:00,
2013-03-11 19:20:00,49.8,27.1,30.00,East,92,0.0,7.6,41,0.00,,SKC,0.00,VWS V14.01,2013-03-11 23:20:00,
2013-03-11 19:40:00,48.9,26.3,30.00,East,92,0.0,0.0,41,0.00,,SKC,0.00,VWS V14.01,2013-03-11 23:40:00,
2013-03-11 20:00:00,48.2,26.8,30.00,WNW,290,0.0,0.0,43,0.00,,SKC,0.00,VWS V14.01,2013-03-12 00:00:00,
2013-03-11 20:20:00,47.8,28.6,30.00,East,99,5.4,5.4,47,0.04,,SKC,0.04,VWS V14.01,2013-03-12 00:20:00,
2013-03-11 20:40:00,48.6,30.3,30.00,East,99,0.0,5.8,49,0.04,,SKC,0.04,VWS V14.01,2013-03-12 00:40:00,
2013-03-11 21:00:00,48.9,31.1,30.00,East,98,0.0,4.0,50,0.04,,SKC,0.04,VWS V14.01,2013-03-12 01:00:00,
2013-03-11 21:20:00,49.3,32.4,30.00,NNW,341,0.0,7.6,52,0.04,,SKC,0.04,VWS V14.01,2013-03-12 01:20:00,
2013-03-11 21:40:00,49.3,33.4,30.00,WNW,297,0.0,0.0,54,0.00,,SKC,0.04,VWS V14.01,2013-03-12 01:40:00,
2013-03-11 22:00:00,49.3,35.1,30.00,SW,236,0.0,0.0,58,0.00,,SKC,0.04,VWS V14.01,2013-03-12 02:00:00,
2013-03-11 22:20:00,49.3,37.6,30.00,ENE,75,0.0,3.1,64,0.00,,SKC,0.04,VWS V14.01,2013-03-12 02:20:00,
2013-03-11 22:40:00,49.1,37.9,30.00,East,86,0.0,0.0,65,0.00,,SKC,0.04,VWS V14.01,2013-03-12 02:40:00,
2013-03-11 23:00:00,49.5,39.0,30.00,ENE,70,0.0,4.9,67,0.00,,SKC,0.04,VWS V14.01,2013-03-12 03:00:00,
2013-03-11 23:20:00,49.5,39.7,30.00,ENE,71,0.0,3.6,69,0.31,,SKC,0.35,VWS V14.01,2013-03-12 03:20:00,
2013-03-11 23:40:00,49.3,39.5,30.00,East,91,0.0,6.7,69,0.31,,SKC,0.35,VWS V14.01,2013-03-12 03:40:00,